Airfield :
LOGIN :

Register | Disclaimer

   EN    FR    IT 

 










Legend :    VFR   Marginal VFR   IFR   Intensive IFR   Very Intensive IFR
Visi :
Ceiling :
>= 8 km
>= 3000ft
5 to 8 km
1000 to 3000 ft
1500m to 5 km
500 to 1000 ft
800 to 1500m
200 to 500 ft
< 800m
< 200 ft
Symbols :   Thunderstorms  Fog  Heavy snow  Heavy precipitations  Wind > 20 kt
SIGMETs :     Misc.  Thunderstorms  Icing  Turbulence  Mountain Waves  Volcanic Ashes






- Airport Elevation : 3368 ft


LSGC - Les Eplatures

CURRENT METAR :
  • 181320Z 03004KT 340V060 7000 -SN FEW011 BKN018 02/M02 Q1016

EXPIRED METARs :
  • 181250Z VRB03KT 2500 -SN BKN014 02/M02 Q1016
  • 181220Z 35005KT 280V050 9999 FEW018 BKN024 02/M04 Q1016
  • 181150Z AUTO 36004KT 290V050 9999 SCT010 SCT012 BKN027 01/M03 Q1015
  • 181120Z AUTO 34003KT 270V040 9999 SCT013 BKN015 BKN025 00/M03 Q1015 RESN
  • 181050Z AUTO 36004KT 310V080 9999 SCT011 SCT013 BKN016 00/M03 Q1015
  • 181020Z AUTO 36005KT 310V050 9999 BKN012 BKN015 M01/M04 Q1015
  • 180950Z AUTO 34004KT 290V040 9999 SCT019 BKN021 M01/M03 Q1014
  • 180920Z 03004KT 310V090 9999 BKN010 M01/M03 Q1014
  • 180850Z 35004KT 260V070 5000 BR BKN010 M01/M03 Q1014
  • 180820Z AUTO 35005KT 310V040 9999 OVC005 M02/M03 Q1014 RESN

TAF TAF LSGC
Valid from the 18 at 12:00 until the 18 at 21:00 UTC


181125Z 1812/1821 VRB02KT 9999 BKN010
BECMG 1812/1814 SCT030



MET'MAP, your aeronautical weather chart ! - Copyright ORBIFLY December 2007 - Disclaimer

ORBIFLY MET'MAP TEAM :

Programming & Development : Alexandra Zaïnal
Original concept : Baudouin d'Aumeries
Technical & hardware support : Manuel Goepfert
Assistance : Marc-Olivier Méhu




SOURCES & CREDITS :

   NOAA